createdAt,value
2023-02-19T00:01:36.095Z,7.30
2023-02-19T00:04:15.778Z,7.30
2023-02-19T00:06:50.580Z,7.30
2023-02-19T00:09:24.920Z,7.30
2023-02-19T00:11:59.134Z,7.30
2023-02-19T00:14:33.463Z,7.30
2023-02-19T00:17:07.406Z,7.30
2023-02-19T00:19:42.204Z,7.30
2023-02-19T00:22:17.807Z,7.30
2023-02-19T00:24:52.593Z,7.30
2023-02-19T00:27:26.486Z,7.30
2023-02-19T00:30:00.806Z,7.30
2023-02-19T00:32:34.628Z,7.30
2023-02-19T00:35:09.504Z,7.30
2023-02-19T00:37:43.261Z,7.30
2023-02-19T00:40:18.512Z,7.30
2023-02-19T00:42:52.194Z,7.30
2023-02-19T00:45:26.318Z,7.28
2023-02-19T00:48:00.229Z,7.30
2023-02-19T00:50:34.271Z,7.30
2023-02-19T00:53:08.183Z,7.30
2023-02-19T00:55:41.975Z,7.30
2023-02-19T00:58:15.992Z,7.30
2023-02-19T01:00:50.062Z,7.30
2023-02-19T01:03:24.550Z,7.30
2023-02-19T01:05:58.593Z,7.28
2023-02-19T01:08:33.422Z,7.22
2023-02-19T01:11:11.928Z,7.20
2023-02-19T01:13:46.700Z,7.20
2023-02-19T01:16:24.068Z,7.22
2023-02-19T01:19:00.270Z,7.26
2023-02-19T01:21:34.994Z,7.30
2023-02-19T01:24:11.023Z,7.30
2023-02-19T01:26:45.279Z,7.28
2023-02-19T01:29:19.044Z,7.24
2023-02-19T01:31:53.110Z,7.30
2023-02-19T01:34:30.471Z,7.26
2023-02-19T01:37:04.603Z,7.30
2023-02-19T01:39:38.809Z,7.30
2023-02-19T01:42:18.650Z,7.30
2023-02-19T01:45:28.376Z,7.30
2023-02-19T01:48:12.768Z,7.30
2023-02-19T01:50:51.204Z,7.30
2023-02-19T01:53:31.127Z,7.30
2023-02-19T01:56:06.514Z,7.30
2023-02-19T01:58:41.505Z,7.30
2023-02-19T02:01:16.049Z,7.30
2023-02-19T02:03:52.337Z,7.30
2023-02-19T02:06:31.327Z,7.30
2023-02-19T02:09:23.543Z,7.30
2023-02-19T02:11:57.481Z,7.30
2023-02-19T02:14:35.240Z,7.30
2023-02-19T02:17:21.661Z,7.30
2023-02-19T02:20:23.977Z,7.30
2023-02-19T02:23:10.897Z,7.30
2023-02-19T02:26:27.260Z,7.30
2023-02-19T02:32:53.466Z,7.30
2023-02-19T02:35:34.206Z,7.38
2023-02-19T02:38:13.578Z,7.30
2023-02-19T02:40:50.029Z,7.30
2023-02-19T02:43:23.891Z,7.30
2023-02-19T02:45:58.674Z,7.30
2023-02-19T02:48:42.919Z,7.30
2023-02-19T02:51:24.810Z,7.30
2023-02-19T02:54:30.764Z,7.30
2023-02-19T02:57:09.448Z,7.30
2023-02-19T02:59:50.553Z,7.30
2023-02-19T03:02:32.483Z,7.30
2023-02-19T03:05:30.956Z,7.30
2023-02-19T03:08:11.131Z,7.30
2023-02-19T03:10:52.939Z,7.30
2023-02-19T03:13:52.719Z,7.36
2023-02-19T03:16:54.960Z,7.32
2023-02-19T03:19:36.581Z,7.40
2023-02-19T03:22:16.888Z,7.40
2023-02-19T03:25:14.054Z,7.40
2023-02-19T03:27:52.194Z,7.40
2023-02-19T03:30:34.223Z,7.40
2023-02-19T03:33:14.038Z,7.50
2023-02-19T03:35:52.772Z,7.50
2023-02-19T03:38:33.146Z,7.50
2023-02-19T03:41:19.099Z,7.50
2023-02-19T03:43:58.832Z,7.50
2023-02-19T03:46:47.204Z,7.50
2023-02-19T03:49:30.336Z,7.50
2023-02-19T03:52:12.600Z,7.50
2023-02-19T03:54:57.864Z,7.50
2023-02-19T03:57:43.503Z,7.50
2023-02-19T04:00:23.960Z,7.50
2023-02-19T04:03:06.796Z,7.50
2023-02-19T04:05:49.681Z,7.50
2023-02-19T04:08:27.400Z,7.50
2023-02-19T04:11:07.353Z,7.54
2023-02-19T04:13:48.076Z,7.52
2023-02-19T04:16:28.054Z,7.52
2023-02-19T04:19:08.750Z,7.58
2023-02-19T04:21:45.650Z,7.60
2023-02-19T04:24:26.730Z,7.60
2023-02-19T04:27:01.030Z,7.60
2023-02-19T04:29:34.734Z,7.60
2023-02-19T04:32:10.921Z,7.60
2023-02-19T04:34:44.649Z,7.60
2023-02-19T04:37:18.354Z,7.60
2023-02-19T04:39:52.115Z,7.60
2023-02-19T04:42:25.714Z,7.60
2023-02-19T04:44:59.515Z,7.60
2023-02-19T04:47:34.325Z,7.60
2023-02-19T04:50:09.530Z,7.60
2023-02-19T04:52:43.164Z,7.60
2023-02-19T04:55:17.204Z,7.60
2023-02-19T04:57:50.864Z,7.60
2023-02-19T05:00:25.002Z,7.60
2023-02-19T05:02:58.777Z,7.60
2023-02-19T05:05:32.572Z,7.60
2023-02-19T05:08:06.509Z,7.60
2023-02-19T05:10:40.347Z,7.60
2023-02-19T05:13:14.028Z,7.56
2023-02-19T05:15:59.485Z,7.56
2023-02-19T05:18:35.680Z,7.60
2023-02-19T05:21:10.733Z,7.56
2023-02-19T05:23:45.768Z,7.50
2023-02-19T05:26:24.591Z,7.50
2023-02-19T05:28:58.385Z,7.50
2023-02-19T05:31:33.769Z,7.60
2023-02-19T05:34:07.649Z,7.60
2023-02-19T05:36:41.959Z,7.50
2023-02-19T05:39:15.934Z,7.50
2023-02-19T05:41:49.747Z,7.50
2023-02-19T05:44:23.369Z,7.50
2023-02-19T05:46:57.196Z,7.50
2023-02-19T05:49:31.108Z,7.50
2023-02-19T05:52:04.923Z,7.50
2023-02-19T05:54:38.476Z,7.52
2023-02-19T05:57:12.436Z,7.60
2023-02-19T05:59:46.124Z,7.50
2023-02-19T06:02:19.796Z,7.50
2023-02-19T06:04:53.452Z,7.50
2023-02-19T06:07:27.216Z,7.50
2023-02-19T06:10:00.901Z,7.50
2023-02-19T06:12:34.879Z,7.50
2023-02-19T06:15:09.904Z,7.50
2023-02-19T06:17:43.556Z,7.50
2023-02-19T06:20:17.660Z,7.50
2023-02-19T06:22:52.850Z,7.50
2023-02-19T06:25:26.557Z,7.40
2023-02-19T06:28:00.481Z,7.40
2023-02-19T06:30:34.611Z,7.38
2023-02-19T06:33:08.557Z,7.30
2023-02-19T06:35:42.746Z,7.30
2023-02-19T06:38:17.930Z,7.20
2023-02-19T06:40:51.968Z,7.10
2023-02-19T06:43:26.068Z,7.10
2023-02-19T06:46:03.366Z,7.10
2023-02-19T06:48:37.533Z,7.00
2023-02-19T06:51:14.703Z,6.96
2023-02-19T06:53:49.089Z,6.90
2023-02-19T06:56:32.326Z,6.82
2023-02-19T06:59:09.112Z,6.78
2023-02-19T07:01:44.265Z,6.70
2023-02-19T07:04:18.096Z,6.62
2023-02-19T07:06:51.798Z,6.60
2023-02-19T07:09:25.784Z,6.60
2023-02-19T07:11:59.586Z,6.60
2023-02-19T07:14:33.427Z,6.60
2023-02-19T07:17:07.522Z,6.60
2023-02-19T07:19:41.218Z,6.60
2023-02-19T07:22:15.112Z,6.56
2023-02-19T07:24:48.782Z,6.50
2023-02-19T07:27:22.471Z,6.40
2023-02-19T07:29:56.272Z,6.40
2023-02-19T07:32:30.019Z,6.40
2023-02-19T07:35:03.689Z,6.30
2023-02-19T07:37:37.466Z,6.30
2023-02-19T07:40:12.877Z,6.20
2023-02-19T07:42:46.658Z,6.12
2023-02-19T07:45:20.667Z,6.04
2023-02-19T07:47:54.570Z,6.00
2023-02-19T07:50:28.333Z,5.90
2023-02-19T07:53:02.417Z,5.80
2023-02-19T07:55:37.608Z,5.70
2023-02-19T07:58:11.662Z,5.60
2023-02-19T08:00:45.638Z,5.50
2023-02-19T08:03:19.542Z,5.50
2023-02-19T08:05:55.090Z,5.46
2023-02-19T08:08:28.951Z,5.40
2023-02-19T08:11:24.094Z,5.40
2023-02-19T08:13:58.076Z,5.30
2023-02-19T08:16:42.676Z,5.32
2023-02-19T08:19:17.447Z,5.40
2023-02-19T08:21:51.719Z,5.40
2023-02-19T08:24:25.541Z,5.30
2023-02-19T08:26:59.592Z,5.24
2023-02-19T08:29:35.096Z,5.24
2023-02-19T08:32:09.304Z,5.22
2023-02-19T08:34:43.370Z,5.20
2023-02-19T08:37:17.277Z,5.20
2023-02-19T08:39:51.160Z,5.20
2023-02-19T08:42:25.109Z,5.30
2023-02-19T08:45:02.859Z,5.36
2023-02-19T08:47:39.579Z,5.36
2023-02-19T08:50:14.494Z,5.40
2023-02-19T08:52:48.208Z,5.40
2023-02-19T08:55:22.171Z,5.40
2023-02-19T08:57:56.331Z,5.50
2023-02-19T09:00:30.138Z,5.52
2023-02-19T09:03:04.071Z,5.60
2023-02-19T09:05:38.672Z,5.60
2023-02-19T09:08:13.875Z,5.70
2023-02-19T09:10:57.987Z,5.70
2023-02-19T09:13:32.096Z,5.80
2023-02-19T09:16:08.664Z,5.90
2023-02-19T09:18:46.702Z,6.10
2023-02-19T09:21:23.568Z,6.18
2023-02-19T09:24:00.574Z,6.30
2023-02-19T09:26:38.601Z,6.36
2023-02-19T09:29:15.547Z,6.42
2023-02-19T09:31:52.707Z,6.60
2023-02-19T09:34:31.574Z,6.70
2023-02-19T09:37:08.912Z,6.88
2023-02-19T09:39:45.582Z,6.90
2023-02-19T09:42:26.593Z,6.90
2023-02-19T09:45:06.869Z,6.90
2023-02-19T09:47:43.630Z,6.90
2023-02-19T09:50:27.582Z,7.02
2023-02-19T09:53:09.577Z,7.20
2023-02-19T09:55:48.581Z,7.30
2023-02-19T09:58:32.563Z,7.50
2023-02-19T10:01:12.014Z,7.62
2023-02-19T10:03:51.595Z,7.80
2023-02-19T10:06:30.583Z,7.90
2023-02-19T10:09:24.578Z,7.90
2023-02-19T10:12:01.823Z,7.80
2023-02-19T10:14:45.727Z,7.70
2023-02-19T10:25:20.075Z,7.60
2023-02-19T10:27:54.348Z,7.60
2023-02-19T10:30:33.354Z,7.50
2023-02-19T10:33:12.978Z,7.50
2023-02-19T10:36:01.756Z,7.50
2023-02-19T10:38:40.700Z,7.50
2023-02-19T10:41:21.090Z,7.50
2023-02-19T10:44:03.902Z,7.42
2023-02-19T10:46:45.436Z,7.40
2023-02-19T10:49:30.812Z,7.40
2023-02-19T10:52:17.881Z,7.50
2023-02-19T10:54:57.768Z,7.40
2023-02-19T10:57:35.248Z,7.40
2023-02-19T11:00:27.727Z,7.42
2023-02-19T11:03:25.506Z,7.40
2023-02-19T11:06:06.778Z,7.30
2023-02-19T11:08:53.855Z,7.20
2023-02-19T11:11:36.106Z,7.20
2023-02-19T11:14:21.631Z,7.20
2023-02-19T11:16:59.590Z,7.10
2023-02-19T11:19:39.904Z,7.00
2023-02-19T11:22:36.717Z,6.90
2023-02-19T11:25:25.851Z,6.80
2023-02-19T11:28:07.329Z,6.80
2023-02-19T11:30:47.142Z,6.80
2023-02-19T11:33:30.126Z,6.94
2023-02-19T11:36:31.763Z,7.10
2023-02-19T11:39:26.071Z,7.30
2023-02-19T11:42:27.174Z,7.60
2023-02-19T11:45:33.132Z,8.26
2023-02-19T11:48:47.512Z,8.60
2023-02-19T11:51:36.519Z,9.22
2023-02-19T11:54:24.743Z,9.70
2023-02-19T11:57:17.191Z,9.90
2023-02-19T12:00:03.298Z,9.46
2023-02-19T12:03:04.432Z,8.92
2023-02-19T12:06:10.482Z,8.38
2023-02-19T12:09:10.718Z,8.00
2023-02-19T12:12:08.391Z,7.86
2023-02-19T12:15:07.641Z,7.60
2023-02-19T12:18:12.927Z,7.30
2023-02-19T12:20:59.154Z,7.22
2023-02-19T12:24:02.873Z,7.28
2023-02-19T12:26:48.942Z,7.36
2023-02-19T12:29:53.079Z,7.72
2023-02-19T12:33:12.886Z,8.12
2023-02-19T12:36:00.324Z,8.20
2023-02-19T12:38:41.028Z,8.24
2023-02-19T12:41:37.255Z,8.30
2023-02-19T12:44:18.395Z,8.20
2023-02-19T12:46:58.184Z,8.20
2023-02-19T12:49:37.303Z,8.10
2023-02-19T12:52:19.555Z,8.16
2023-02-19T12:55:00.510Z,8.40
2023-02-19T12:57:40.285Z,8.50
2023-02-19T13:00:35.259Z,8.30
2023-02-19T13:03:22.096Z,8.00
2023-02-19T13:06:04.889Z,7.80
2023-02-19T13:09:05.307Z,7.70
2023-02-19T13:11:47.817Z,7.80
2023-02-19T13:14:32.693Z,7.70
2023-02-19T13:17:22.310Z,7.80
2023-02-19T13:20:04.378Z,7.80
2023-02-19T13:23:03.573Z,7.80
2023-02-19T13:26:03.037Z,8.00
2023-02-19T13:29:03.256Z,8.10
2023-02-19T13:32:12.166Z,8.00
2023-02-19T13:35:05.264Z,7.90
2023-02-19T13:37:40.262Z,7.80
2023-02-19T13:40:32.191Z,7.84
2023-02-19T13:43:10.096Z,8.00
2023-02-19T13:45:48.074Z,8.26
2023-02-19T13:48:33.773Z,8.68
2023-02-19T13:51:51.560Z,9.00
2023-02-19T13:54:33.377Z,9.28
2023-02-19T13:57:33.759Z,9.40
2023-02-19T14:00:52.166Z,9.40
2023-02-19T14:03:47.119Z,9.48
2023-02-19T14:06:21.696Z,9.98
2023-02-19T14:09:00.408Z,10.48
2023-02-19T14:12:19.290Z,10.90
2023-02-19T14:14:54.571Z,11.00
2023-02-19T14:17:43.632Z,10.66
2023-02-19T14:20:46.681Z,10.30
2023-02-19T14:23:25.507Z,10.28
2023-02-19T14:26:05.198Z,10.70
2023-02-19T14:28:47.745Z,10.94
2023-02-19T14:31:29.971Z,11.40
2023-02-19T14:34:08.668Z,11.46
2023-02-19T14:36:51.909Z,11.92
2023-02-19T14:39:31.701Z,12.50
2023-02-19T14:42:16.884Z,12.82
2023-02-19T14:44:57.404Z,13.06
2023-02-19T14:47:35.157Z,13.16
2023-02-19T14:50:18.977Z,12.64
2023-02-19T14:52:58.838Z,12.24
2023-02-19T14:55:37.931Z,12.14
2023-02-19T14:58:22.223Z,11.04
2023-02-19T15:00:56.334Z,10.06
2023-02-19T15:03:35.702Z,9.38
2023-02-19T15:06:18.937Z,8.72
2023-02-19T15:08:59.097Z,8.34
2023-02-19T15:11:36.398Z,8.04
2023-02-19T15:14:22.558Z,7.90
2023-02-19T15:17:02.458Z,8.04
2023-02-19T15:19:40.430Z,9.04
2023-02-19T15:22:22.155Z,9.70
2023-02-19T15:24:57.129Z,10.04
2023-02-19T15:27:31.232Z,9.58
2023-02-19T15:30:05.255Z,9.16
2023-02-19T15:32:39.605Z,8.60
2023-02-19T15:35:25.440Z,8.16
2023-02-19T15:37:59.785Z,7.80
2023-02-19T15:40:35.649Z,7.50
2023-02-19T15:43:24.806Z,7.30
2023-02-19T15:46:03.052Z,7.20
2023-02-19T15:48:44.903Z,7.10
2023-02-19T15:51:27.016Z,7.00
2023-02-19T15:54:08.111Z,6.90
2023-02-19T15:56:49.008Z,6.70
2023-02-19T15:59:31.256Z,6.60
2023-02-19T16:02:06.076Z,6.50
2023-02-19T16:04:41.386Z,6.40
2023-02-19T16:07:31.969Z,6.30
2023-02-19T16:10:26.675Z,6.16
2023-02-19T16:13:03.148Z,6.08
2023-02-19T16:15:39.808Z,6.00
2023-02-19T16:18:18.491Z,5.90
2023-02-19T16:20:52.681Z,5.80
2023-02-19T16:23:27.475Z,5.70
2023-02-19T16:26:06.205Z,5.60
2023-02-19T16:28:42.544Z,5.50
2023-02-19T16:31:17.973Z,5.40
2023-02-19T16:33:53.955Z,5.30
2023-02-19T16:36:41.393Z,5.20
2023-02-19T16:39:26.488Z,5.20
2023-02-19T16:42:20.613Z,5.20
2023-02-19T16:44:54.681Z,5.10
2023-02-19T16:47:41.425Z,5.10
2023-02-19T16:50:22.284Z,5.00
2023-02-19T16:52:58.182Z,5.00
2023-02-19T16:55:34.689Z,4.92
2023-02-19T16:58:08.629Z,4.90
2023-02-19T17:00:42.509Z,4.90
2023-02-19T17:03:20.573Z,4.80
2023-02-19T17:05:55.585Z,4.80
2023-02-19T17:08:42.489Z,4.70
2023-02-19T17:11:19.262Z,4.70
2023-02-19T17:13:53.203Z,4.60
2023-02-19T17:16:39.824Z,4.60
2023-02-19T17:19:18.949Z,4.60
2023-02-19T17:21:52.848Z,4.60
2023-02-19T17:24:26.694Z,4.70
2023-02-19T17:27:00.756Z,4.70
2023-02-19T17:29:35.282Z,4.70
2023-02-19T17:32:09.428Z,4.70
2023-02-19T17:34:43.373Z,4.66
2023-02-19T17:37:17.495Z,4.70
2023-02-19T17:39:51.930Z,4.70
2023-02-19T17:42:26.026Z,4.72
2023-02-19T17:44:59.934Z,4.80
2023-02-19T17:47:34.031Z,4.80
2023-02-19T17:50:11.394Z,4.90
2023-02-19T17:52:45.489Z,4.88
2023-02-19T17:55:21.190Z,4.80
2023-02-19T17:57:56.183Z,4.80
2023-02-19T18:00:33.250Z,4.80
2023-02-19T18:03:08.152Z,4.80
2023-02-19T18:05:42.223Z,4.78
2023-02-19T18:08:16.433Z,4.80
2023-02-19T18:10:50.446Z,4.80
2023-02-19T18:13:24.360Z,4.80
2023-02-19T18:15:58.322Z,4.80
2023-02-19T18:18:32.295Z,4.82
2023-02-19T18:21:09.340Z,4.90
2023-02-19T18:23:43.706Z,4.90
2023-02-19T18:26:22.315Z,4.94
2023-02-19T18:28:56.735Z,4.94
2023-02-19T18:31:32.738Z,4.90
2023-02-19T18:34:07.659Z,4.90
2023-02-19T18:36:45.103Z,4.90
2023-02-19T18:39:19.302Z,4.90
2023-02-19T18:41:54.618Z,4.90
2023-02-19T18:44:28.902Z,4.80
2023-02-19T18:47:02.784Z,4.70
2023-02-19T18:49:37.032Z,4.70
2023-02-19T18:52:12.349Z,4.60
2023-02-19T18:54:46.163Z,4.60
2023-02-19T18:57:21.470Z,4.50
2023-02-19T18:59:56.198Z,4.40
2023-02-19T19:02:42.704Z,4.30
2023-02-19T19:05:24.545Z,4.30
2023-02-19T19:08:01.984Z,4.20
2023-02-19T19:10:36.274Z,4.20
2023-02-19T19:13:10.751Z,4.10
2023-02-19T19:15:45.248Z,4.00
2023-02-19T19:18:19.495Z,3.90
2023-02-19T19:20:56.682Z,3.80
2023-02-19T19:23:30.893Z,3.80
2023-02-19T19:26:09.868Z,3.74
2023-02-19T19:28:46.564Z,3.70
2023-02-19T19:31:23.022Z,3.70
2023-02-19T19:33:57.422Z,3.60
2023-02-19T19:36:31.551Z,3.50
2023-02-19T19:39:05.612Z,3.50
2023-02-19T19:41:39.586Z,3.50
2023-02-19T19:44:19.288Z,3.50
2023-02-19T19:46:55.577Z,3.40
2023-02-19T19:49:33.545Z,3.40
2023-02-19T19:52:08.318Z,3.30
2023-02-19T19:54:43.902Z,3.30
2023-02-19T19:57:18.885Z,3.30
2023-02-19T19:59:54.337Z,3.30
2023-02-19T20:02:28.570Z,3.30
2023-02-19T20:05:07.134Z,3.28
2023-02-19T20:07:41.320Z,3.20
2023-02-19T20:10:19.450Z,3.20
2023-02-19T20:12:53.897Z,3.20
2023-02-19T20:15:28.441Z,3.14
2023-02-19T20:18:02.609Z,3.10
2023-02-19T20:20:37.354Z,3.10
2023-02-19T20:23:12.845Z,3.00
2023-02-19T20:25:49.339Z,3.00
2023-02-19T20:28:25.700Z,3.00
2023-02-19T20:31:00.916Z,3.00
2023-02-19T20:33:37.370Z,3.00
2023-02-19T20:36:13.015Z,3.00
2023-02-19T20:38:47.122Z,3.00
2023-02-19T20:41:21.358Z,2.92
2023-02-19T20:43:55.289Z,3.00
2023-02-19T20:46:29.939Z,3.00
2023-02-19T20:49:03.988Z,2.98
2023-02-19T20:51:45.943Z,2.92
2023-02-19T20:54:22.942Z,2.90
2023-02-19T20:57:00.010Z,2.90
2023-02-19T20:59:36.097Z,2.90
2023-02-19T21:02:27.792Z,2.90
2023-02-19T21:05:02.275Z,2.80
2023-02-19T21:07:36.538Z,2.80
2023-02-19T21:10:13.134Z,2.78
2023-02-19T21:12:47.167Z,2.70
2023-02-19T21:15:21.518Z,2.70
2023-02-19T21:17:55.496Z,2.70
2023-02-19T21:20:29.511Z,2.70
2023-02-19T21:23:03.561Z,2.70
2023-02-19T21:25:38.118Z,2.80
2023-02-19T21:28:12.613Z,2.76
2023-02-19T21:30:46.795Z,2.80
2023-02-19T21:33:20.707Z,2.80
2023-02-19T21:35:54.655Z,2.80
2023-02-19T21:38:29.180Z,2.84
2023-02-19T21:41:03.455Z,2.82
2023-02-19T21:43:37.457Z,2.80
2023-02-19T21:46:18.499Z,2.80
2023-02-19T21:48:54.621Z,2.80
2023-02-19T21:51:35.658Z,2.80
2023-02-19T21:54:15.688Z,2.80
2023-02-19T21:56:49.821Z,2.80
2023-02-19T21:59:25.369Z,2.70
2023-02-19T22:01:59.153Z,2.70
2023-02-19T22:04:33.204Z,2.70
2023-02-19T22:07:07.130Z,2.70
2023-02-19T22:09:40.893Z,2.70
2023-02-19T22:12:14.972Z,2.70
2023-02-19T22:14:49.989Z,2.70
2023-02-19T22:17:24.676Z,2.70
2023-02-19T22:20:01.195Z,2.70
2023-02-19T22:22:37.641Z,2.70
2023-02-19T22:25:13.718Z,2.70
2023-02-19T22:27:50.645Z,2.70
2023-02-19T22:30:26.696Z,2.70
2023-02-19T22:33:02.644Z,2.70
2023-02-19T22:35:39.640Z,2.70
2023-02-19T22:38:16.665Z,2.64
2023-02-19T22:40:52.640Z,2.64
2023-02-19T22:43:30.001Z,2.60
2023-02-19T22:46:06.727Z,2.60
2023-02-19T22:48:42.613Z,2.56
2023-02-19T22:51:21.649Z,2.50
2023-02-19T22:54:01.631Z,2.50
2023-02-19T22:56:38.630Z,2.50
2023-02-19T22:59:14.657Z,2.50
2023-02-19T23:01:52.640Z,2.50
2023-02-19T23:04:29.702Z,2.40
2023-02-19T23:07:05.647Z,2.40
2023-02-19T23:09:41.620Z,2.40
2023-02-19T23:12:17.641Z,2.40
2023-02-19T23:14:52.862Z,2.40
2023-02-19T23:25:24.871Z,2.30
2023-02-19T23:27:58.651Z,2.30
2023-02-19T23:30:32.431Z,2.30
2023-02-19T23:33:06.127Z,2.20
2023-02-19T23:35:40.220Z,2.20
2023-02-19T23:38:14.143Z,2.20
2023-02-19T23:40:47.906Z,2.20
2023-02-19T23:43:22.213Z,2.20
2023-02-19T23:45:55.975Z,2.20
2023-02-19T23:48:29.944Z,2.20
2023-02-19T23:51:03.842Z,2.20
2023-02-19T23:53:37.451Z,2.20
2023-02-19T23:56:11.967Z,2.10
2023-02-19T23:58:46.001Z,2.10
